Portada
METAR-TAF:

METAR-TAF

Aeroports :

Xiamen, Xina

latitud: 24-29N, longitud: 118-05E, altitud: 139 m

Observació

L'informe es va fer fa 56 minuts, a les 11:00 UTC
Vent 8 kt del Est, variant entre Est/Nord-Est i Sud-Est
Temperatura 19°C
Humitat 73%
Pressió 1018 hPa
Visibilitat 10 km o més
sense núvols per sota de 1500 mi sense presència de cumulonimbus.

METAR: ZSAM 091100Z 09004MPS 070V130 CAVOK 19/14 Q1018 NOSIG

Hora: 19:56 (11:56 UTC)

Pronòstic

L'informe es va fer fa 2 hores i 49 minuts, a les 09:07 UTC
Pronòstic vàlid del 09 a les 12 UTC al 10 a les 12 UTC
Vent 8 kt del Est/Nord-Est amb ràfegues de 17 kt
Visibilitat: 8000 m
Núvols disperses a una alçada de 3000 ft
Evolucionant progressivament
l' 10 a les 05 UTC al 10 a les 06 UTC
Vent 10 kt del Est/Sud-Est

TAF: ZSAM 090907Z 0912/1012 06004G09MPS 8000 SCT030 TX26/1006Z TN14/0921Z BECMG 1005/1006 12005MPS

Observacions i pronòstics meteorològics de més de 4000 aeroports (METAR i TAF).

Les estacions disponibles són els punts grocs i vermells al mapa.

Posi el ratolí al punt desitjat per veure el nom de l'estació.

Feu clic per veure les observacions i els pronòstics meteorològics.

Per canviar el mapa: feu clic els botons verds amb una creu de color negre per apropar; al botó verd amb un guió per allunyar la imatge; o en les fletxes verdes per a mapes adjacents.


METAR-TAF: